createdAt,value
2022-11-16T00:00:05.810Z,97839.47
2022-11-16T00:02:33.752Z,97834.84
2022-11-16T00:05:00.552Z,97826.72
2022-11-16T00:07:27.705Z,97834.00
2022-11-16T00:09:54.870Z,97833.19
2022-11-16T00:12:22.041Z,97831.31
2022-11-16T00:14:49.140Z,97823.44
2022-11-16T00:17:16.291Z,97831.31
2022-11-16T00:19:43.385Z,97832.94
2022-11-16T00:22:10.499Z,97832.12
2022-11-16T00:24:37.249Z,97820.72
2022-11-16T00:27:04.686Z,97824.78
2022-11-16T00:29:31.501Z,97833.19
2022-11-16T00:31:58.281Z,97826.41
2022-11-16T00:34:25.947Z,97821.00
2022-11-16T00:36:52.836Z,97821.53
2022-11-16T00:39:20.225Z,97824.53
2022-11-16T00:41:48.554Z,97826.41
2022-11-16T00:44:16.151Z,97815.28
2022-11-16T00:46:43.650Z,97814.75
2022-11-16T00:49:11.399Z,97804.72
2022-11-16T00:51:38.581Z,97798.22
2022-11-16T00:54:07.065Z,97794.69
2022-11-16T00:56:35.153Z,97785.72
2022-11-16T00:59:02.279Z,97793.06
2022-11-16T01:01:29.330Z,97791.16
2022-11-16T01:03:57.017Z,97777.59
2022-11-16T01:06:24.179Z,97784.66
2022-11-16T01:08:52.351Z,97779.22
2022-11-16T01:11:38.310Z,97788.97
2022-11-16T01:14:07.771Z,97783.84
2022-11-16T01:16:35.063Z,97790.87
2022-11-16T01:19:02.936Z,97792.50
2022-11-16T01:21:29.821Z,97785.47
2022-11-16T01:23:57.665Z,97784.66
2022-11-16T01:26:25.097Z,97795.50
2022-11-16T01:28:52.200Z,97780.84
2022-11-16T01:31:19.959Z,97786.53
2022-11-16T01:33:46.734Z,97773.78
2022-11-16T01:36:15.144Z,97771.91
2022-11-16T01:38:43.663Z,97778.13
2022-11-16T01:41:15.261Z,97769.72
2022-11-16T01:44:00.837Z,97766.19
2022-11-16T01:46:29.133Z,97756.16
2022-11-16T01:49:18.326Z,97753.19
2022-11-16T01:51:51.109Z,97748.03
2022-11-16T01:54:18.965Z,97741.78
2022-11-16T01:56:49.446Z,97743.41
2022-11-16T01:59:17.944Z,97732.03
2022-11-16T02:01:45.080Z,97730.94
2022-11-16T02:04:14.869Z,97730.13
2022-11-16T02:06:59.520Z,97730.41
2022-11-16T02:09:58.280Z,97732.56
2022-11-16T02:12:28.400Z,97731.75
2022-11-16T02:15:30.104Z,97726.34
2022-11-16T02:18:11.315Z,97719.81
2022-11-16T02:21:11.389Z,97701.13
2022-11-16T02:23:52.710Z,97692.97
2022-11-16T02:26:43.485Z,97697.59
2022-11-16T02:29:23.457Z,97690.25
2022-11-16T02:31:53.138Z,97690.53
2022-11-16T02:34:23.731Z,97687.81
2022-11-16T02:36:55.294Z,97681.31
2022-11-16T02:39:26.351Z,97687.56
2022-11-16T02:41:54.776Z,97682.41
2022-11-16T02:44:29.124Z,97683.75
2022-11-16T02:47:03.415Z,97681.31
2022-11-16T02:49:35.521Z,97671.56
2022-11-16T02:52:03.318Z,97675.91
2022-11-16T02:54:30.506Z,97672.38
2022-11-16T02:57:03.594Z,97673.19
2022-11-16T02:59:41.955Z,97669.37
2022-11-16T03:02:34.806Z,97658.81
2022-11-16T03:05:08.433Z,97658.81
2022-11-16T03:07:45.433Z,97655.28
2022-11-16T03:10:34.738Z,97659.91
2022-11-16T03:13:03.694Z,97658.00
2022-11-16T03:15:31.567Z,97649.84
2022-11-16T03:18:00.363Z,97650.66
2022-11-16T03:20:31.202Z,97648.22
2022-11-16T03:23:08.695Z,97648.22
2022-11-16T03:25:53.600Z,97649.03
2022-11-16T03:28:27.512Z,97649.03
2022-11-16T03:31:24.578Z,97644.72
2022-11-16T03:33:56.361Z,97642.00
2022-11-16T03:36:29.371Z,97640.09
2022-11-16T03:39:01.487Z,97645.78
2022-11-16T03:41:31.565Z,97646.06
2022-11-16T03:44:00.237Z,97641.19
2022-11-16T03:46:27.514Z,97640.38
2022-11-16T03:48:59.663Z,97637.94
2022-11-16T03:51:26.975Z,97630.87
2022-11-16T03:53:54.261Z,97627.62
2022-11-16T03:56:21.538Z,97618.69
2022-11-16T03:58:48.409Z,97618.69
2022-11-16T04:01:15.924Z,97610.56
2022-11-16T04:03:42.925Z,97608.37
2022-11-16T04:06:29.568Z,97609.19
2022-11-16T04:09:15.709Z,97594.28
2022-11-16T04:12:01.795Z,97592.66
2022-11-16T04:14:47.678Z,97599.72
2022-11-16T04:17:35.355Z,97595.09
2022-11-16T04:20:22.802Z,97592.37
2022-11-16T04:23:33.031Z,97588.06
2022-11-16T04:26:00.730Z,97593.47
2022-11-16T04:28:32.157Z,97590.19
2022-11-16T04:31:20.410Z,97591.84
2022-11-16T04:34:08.373Z,97587.47
2022-11-16T04:36:53.905Z,97586.44
2022-11-16T04:39:21.485Z,97582.34
2022-11-16T04:42:06.768Z,97582.34
2022-11-16T04:44:55.935Z,97583.44
2022-11-16T04:47:23.100Z,97582.63
2022-11-16T04:49:50.231Z,97586.94
2022-11-16T04:52:17.760Z,97587.22
2022-11-16T04:54:44.580Z,97585.31
2022-11-16T04:57:11.817Z,97577.19
2022-11-16T04:59:39.292Z,97576.38
2022-11-16T05:02:09.203Z,97574.75
2022-11-16T05:04:38.529Z,97576.66
2022-11-16T05:07:11.169Z,97580.72
2022-11-16T05:09:41.892Z,97567.44
2022-11-16T05:12:14.987Z,97569.34
2022-11-16T05:14:43.805Z,97569.59
2022-11-16T05:17:11.421Z,97571.50
2022-11-16T05:19:57.371Z,97561.75
2022-11-16T05:22:24.738Z,97564.75
2022-11-16T05:24:52.265Z,97558.75
2022-11-16T05:27:20.848Z,97562.56
2022-11-16T05:29:50.127Z,97561.75
2022-11-16T05:32:18.890Z,97551.72
2022-11-16T05:34:46.457Z,97554.72
2022-11-16T05:37:14.579Z,97553.63
2022-11-16T05:39:41.959Z,97560.94
2022-11-16T05:42:09.923Z,97554.72
2022-11-16T05:44:36.831Z,97546.56
2022-11-16T05:47:04.499Z,97543.59
2022-11-16T05:49:31.722Z,97535.72
2022-11-16T05:51:58.848Z,97540.34
2022-11-16T05:54:26.963Z,97537.91
2022-11-16T05:56:55.221Z,97545.22
2022-11-16T05:59:23.569Z,97542.25
2022-11-16T06:01:51.925Z,97539.81
2022-11-16T06:04:24.212Z,97543.31
2022-11-16T06:06:52.271Z,97541.44
2022-11-16T06:09:19.542Z,97541.44
2022-11-16T06:11:46.404Z,97543.88
2022-11-16T06:14:13.905Z,97546.87
2022-11-16T06:16:40.680Z,97544.16
2022-11-16T06:19:08.390Z,97535.22
2022-11-16T06:21:35.660Z,97543.34
2022-11-16T06:24:09.351Z,97541.44
2022-11-16T06:26:37.493Z,97539.53
2022-11-16T06:29:04.950Z,97538.72
2022-11-16T06:31:32.188Z,97527.06
2022-11-16T06:33:59.467Z,97526.00
2022-11-16T06:36:26.805Z,97535.75
2022-11-16T06:38:53.650Z,97531.13
2022-11-16T06:41:21.365Z,97524.91
2022-11-16T06:43:48.103Z,97529.25
2022-11-16T06:46:15.228Z,97531.13
2022-11-16T06:48:42.671Z,97526.53
2022-11-16T06:51:09.781Z,97536.28
2022-11-16T06:53:36.998Z,97522.72
2022-11-16T06:56:06.032Z,97515.41
2022-11-16T06:58:34.046Z,97518.41
2022-11-16T07:01:11.885Z,97517.31
2022-11-16T07:03:39.533Z,97515.69
2022-11-16T07:06:08.538Z,97516.78
2022-11-16T07:08:36.080Z,97513.50
2022-11-16T07:11:08.273Z,97514.59
2022-11-16T07:13:37.248Z,97517.31
2022-11-16T07:16:06.295Z,97497.50
2022-11-16T07:18:35.977Z,97502.13
2022-11-16T07:21:13.790Z,97499.13
2022-11-16T07:23:41.571Z,97499.94
2022-11-16T07:26:09.919Z,97507.81
2022-11-16T07:28:38.353Z,97500.75
2022-11-16T07:31:12.701Z,97505.09
2022-11-16T07:33:40.574Z,97499.66
2022-11-16T07:36:10.956Z,97494.25
2022-11-16T07:38:38.866Z,97500.47
2022-11-16T07:41:08.626Z,97492.63
2022-11-16T07:43:36.604Z,97488.00
2022-11-16T07:46:44.711Z,97489.91
2022-11-16T07:48:52.497Z,97486.94
2022-11-16T07:51:20.777Z,97486.94
2022-11-16T07:53:47.870Z,97495.06
2022-11-16T07:56:14.996Z,97496.41
2022-11-16T07:58:42.247Z,97484.22
2022-11-16T08:01:12.407Z,97481.47
2022-11-16T08:03:40.246Z,97475.25
2022-11-16T08:06:13.835Z,97480.38
2022-11-16T08:08:40.767Z,97473.88
2022-11-16T08:11:09.978Z,97471.97
2022-11-16T08:13:38.919Z,97469.81
2022-11-16T08:16:16.245Z,97474.16
2022-11-16T08:18:43.748Z,97474.97
2022-11-16T08:21:13.485Z,97475.50
2022-11-16T08:23:40.733Z,97482.56
2022-11-16T08:26:14.978Z,97474.94
2022-11-16T08:28:43.854Z,97485.50
2022-11-16T08:31:14.242Z,97477.09
2022-11-16T08:33:41.564Z,97485.75
2022-11-16T08:36:14.196Z,97481.69
2022-11-16T08:38:41.640Z,97487.63
2022-11-16T08:41:08.784Z,97481.94
2022-11-16T08:43:36.070Z,97481.66
2022-11-16T08:46:03.614Z,97467.81
2022-11-16T08:48:30.805Z,97473.53
2022-11-16T08:51:21.185Z,97474.06
2022-11-16T08:53:49.614Z,97469.97
2022-11-16T08:56:18.845Z,97471.03
2022-11-16T08:58:52.605Z,97472.66
2022-11-16T09:01:25.073Z,97472.09
2022-11-16T09:03:53.423Z,97468.81
2022-11-16T09:06:20.814Z,97472.03
2022-11-16T09:08:48.449Z,97473.09
2022-11-16T09:11:17.971Z,97473.66
2022-11-16T09:13:47.789Z,97473.09
2022-11-16T09:16:18.105Z,97473.09
2022-11-16T09:18:48.942Z,97476.88
2022-11-16T09:21:25.357Z,97471.97
2022-11-16T09:23:54.752Z,97476.31
2022-11-16T09:26:23.317Z,97471.41
2022-11-16T09:28:59.279Z,97473.03
2022-11-16T09:31:27.943Z,97468.13
2022-11-16T09:33:58.911Z,97472.47
2022-11-16T09:36:28.616Z,97472.97
2022-11-16T09:42:18.842Z,97472.41
2022-11-16T09:45:00.817Z,97466.72
2022-11-16T09:47:43.681Z,97464.56
2022-11-16T09:50:24.670Z,97465.34
2022-11-16T09:52:57.723Z,97454.50
2022-11-16T09:55:27.494Z,97456.13
2022-11-16T09:58:00.185Z,97458.03
2022-11-16T10:00:29.104Z,97466.69
2022-11-16T10:03:15.114Z,97462.06
2022-11-16T10:06:06.255Z,97461.78
2022-11-16T10:08:43.694Z,97466.12
2022-11-16T10:11:27.150Z,97455.25
2022-11-16T10:14:20.417Z,97456.88
2022-11-16T10:17:15.944Z,97451.16
2022-11-16T10:20:19.991Z,97448.16
2022-11-16T10:23:17.702Z,97441.34
2022-11-16T10:25:47.428Z,97436.44
2022-11-16T10:28:26.621Z,97430.75
2022-11-16T10:31:00.130Z,97427.75
2022-11-16T10:33:35.738Z,97425.53
2022-11-16T10:36:14.536Z,97416.84
2022-11-16T10:38:43.503Z,97423.63
2022-11-16T10:41:30.004Z,97422.53
2022-11-16T10:43:59.098Z,97418.44
2022-11-16T10:46:40.601Z,97421.94
2022-11-16T10:49:21.955Z,97423.28
2022-11-16T10:51:49.353Z,97422.19
2022-11-16T10:54:17.756Z,97419.47
2022-11-16T10:56:48.742Z,97421.91
2022-11-16T10:59:19.487Z,97420.28
2022-11-16T11:01:51.508Z,97415.94
2022-11-16T11:04:31.689Z,97423.28
2022-11-16T11:07:22.571Z,97423.28
2022-11-16T11:09:53.971Z,97418.94
2022-11-16T11:12:39.955Z,97414.63
2022-11-16T11:15:12.900Z,97402.13
2022-11-16T11:17:45.240Z,97411.38
2022-11-16T11:20:15.268Z,97408.94
2022-11-16T11:23:03.727Z,97404.31
2022-11-16T11:25:37.304Z,97402.41
2022-11-16T11:28:35.723Z,97403.22
2022-11-16T11:31:07.486Z,97403.22
2022-11-16T11:33:44.769Z,97396.19
2022-11-16T11:36:20.449Z,97398.59
2022-11-16T11:39:00.511Z,97403.22
2022-11-16T11:42:00.565Z,97404.03
2022-11-16T11:44:37.409Z,97393.47
2022-11-16T11:47:55.399Z,97397.78
2022-11-16T11:50:28.260Z,97393.75
2022-11-16T11:53:02.723Z,97395.37
2022-11-16T11:55:30.132Z,97392.94
2022-11-16T11:57:59.542Z,97387.22
2022-11-16T12:00:27.022Z,97385.31
2022-11-16T12:03:02.818Z,97385.03
2022-11-16T12:05:53.856Z,97383.12
2022-11-16T12:08:53.150Z,97382.81
2022-11-16T12:11:29.857Z,97382.25
2022-11-16T12:14:38.614Z,97381.97
2022-11-16T12:17:28.057Z,97385.19
2022-11-16T12:20:16.338Z,97386.81
2022-11-16T12:22:55.144Z,97382.50
2022-11-16T12:25:43.325Z,97381.38
2022-11-16T12:28:40.018Z,97382.50
2022-11-16T12:31:15.854Z,97384.91
2022-11-16T12:34:27.585Z,97381.38
2022-11-16T12:37:18.618Z,97380.81
2022-11-16T12:40:07.009Z,97381.34
2022-11-16T12:43:14.663Z,97388.38
2022-11-16T12:45:56.873Z,97388.38
2022-11-16T12:48:52.040Z,97387.84
2022-11-16T12:51:32.078Z,97398.41
2022-11-16T12:55:24.166Z,97399.75
2022-11-16T12:57:57.667Z,97405.19
2022-11-16T13:00:24.790Z,97398.66
2022-11-16T13:03:17.917Z,97402.16
2022-11-16T13:06:04.053Z,97400.25
2022-11-16T13:08:40.142Z,97398.66
2022-11-16T13:11:16.183Z,97397.25
2022-11-16T13:13:51.454Z,97404.59
2022-11-16T13:16:21.238Z,97396.75
2022-11-16T13:18:48.886Z,97398.94
2022-11-16T13:21:38.940Z,97394.59
2022-11-16T13:24:37.349Z,97394.87
2022-11-16T13:27:27.179Z,97394.09
2022-11-16T13:30:25.077Z,97388.66
2022-11-16T13:32:58.405Z,97383.50
2022-11-16T13:35:26.035Z,97388.94
2022-11-16T13:37:53.034Z,97387.56
2022-11-16T13:40:35.966Z,97384.59
2022-11-16T13:43:09.593Z,97391.09
2022-11-16T13:45:44.515Z,97386.50
2022-11-16T13:48:17.627Z,97387.88
2022-11-16T13:50:51.196Z,97381.09
2022-11-16T13:54:37.834Z,97385.44
2022-11-16T13:56:28.365Z,97383.00
2022-11-16T13:58:58.060Z,97380.56
2022-11-16T14:01:25.051Z,97386.00
2022-11-16T14:04:13.961Z,97385.50
2022-11-16T14:06:58.323Z,97384.16
2022-11-16T14:09:48.493Z,97374.91
2022-11-16T14:12:37.763Z,97377.91
2022-11-16T14:15:19.540Z,97376.00
2022-11-16T14:17:53.370Z,97379.00
2022-11-16T14:20:37.559Z,97387.97
2022-11-16T14:23:07.614Z,97384.22
2022-11-16T14:26:11.013Z,97388.56
2022-11-16T14:29:15.941Z,97381.78
2022-11-16T14:31:56.287Z,97385.59
2022-11-16T14:34:32.709Z,97387.78
2022-11-16T14:37:01.053Z,97396.22
2022-11-16T14:39:41.606Z,97388.34
2022-11-16T14:42:48.210Z,97384.81
2022-11-16T14:45:32.822Z,97387.53
2022-11-16T14:48:15.449Z,97385.91
2022-11-16T14:50:46.066Z,97384.28
2022-11-16T14:53:18.514Z,97384.56
2022-11-16T14:55:46.650Z,97386.47
2022-11-16T14:58:20.727Z,97378.34
2022-11-16T15:01:02.168Z,97385.97
2022-11-16T15:03:38.935Z,97377.28
2022-11-16T15:06:07.804Z,97382.19
2022-11-16T15:08:44.888Z,97369.72
2022-11-16T15:11:24.534Z,97371.91
2022-11-16T15:13:52.040Z,97366.75
2022-11-16T15:16:20.234Z,97364.34
2022-11-16T15:19:01.615Z,97379.28
2022-11-16T15:21:29.399Z,97379.28
2022-11-16T15:26:44.230Z,97371.16
2022-11-16T15:29:17.958Z,97382.59
2022-11-16T15:31:45.712Z,97378.56
2022-11-16T15:34:18.645Z,97380.44
2022-11-16T15:36:46.885Z,97375.84
2022-11-16T15:39:21.753Z,97370.16
2022-11-16T15:41:49.756Z,97373.97
2022-11-16T15:44:19.671Z,97364.50
2022-11-16T15:46:55.253Z,97364.50
2022-11-16T15:49:31.358Z,97366.69
2022-11-16T15:52:00.005Z,97355.84
2022-11-16T15:54:28.556Z,97359.94
2022-11-16T15:56:58.475Z,97362.06
2022-11-16T15:59:33.429Z,97359.94
2022-11-16T16:02:00.654Z,97354.78
2022-11-16T16:04:29.081Z,97352.59
2022-11-16T16:07:01.132Z,97354.78
2022-11-16T16:09:32.579Z,97352.34
2022-11-16T16:12:23.900Z,97359.13
2022-11-16T16:14:52.801Z,97356.19
2022-11-16T16:17:28.558Z,97349.94
2022-11-16T16:20:01.271Z,97354.56
2022-11-16T16:22:33.229Z,97355.94
2022-11-16T16:25:01.937Z,97345.66
2022-11-16T16:27:31.122Z,97344.84
2022-11-16T16:30:03.027Z,97347.56
2022-11-16T16:32:33.212Z,97344.56
2022-11-16T16:35:03.053Z,97340.22
2022-11-16T16:37:32.921Z,97343.75
2022-11-16T16:40:00.448Z,97338.63
2022-11-16T16:42:28.376Z,97331.56
2022-11-16T16:44:55.578Z,97322.38
2022-11-16T16:47:22.744Z,97324.00
2022-11-16T16:49:49.703Z,97322.09
2022-11-16T16:52:17.998Z,97324.00
2022-11-16T16:54:45.830Z,97326.72
2022-11-16T16:57:17.458Z,97323.47
2022-11-16T16:59:45.736Z,97327.03
2022-11-16T17:02:13.531Z,97325.97
2022-11-16T17:04:41.504Z,97328.16
2022-11-16T17:07:08.673Z,97337.66
2022-11-16T17:09:35.966Z,97336.84
2022-11-16T17:12:06.062Z,97344.75
2022-11-16T17:14:33.685Z,97345.31
2022-11-16T17:17:00.898Z,97342.59
2022-11-16T17:19:29.667Z,97358.34
2022-11-16T17:21:57.205Z,97339.41
2022-11-16T17:24:25.090Z,97352.41
2022-11-16T17:26:52.762Z,97347.81
2022-11-16T17:29:19.988Z,97342.38
2022-11-16T17:31:48.194Z,97349.16
2022-11-16T17:34:15.404Z,97344.81
2022-11-16T17:36:43.966Z,97355.94
2022-11-16T17:39:12.438Z,97352.16
2022-11-16T17:41:40.380Z,97350.53
2022-11-16T17:44:09.154Z,97345.38
2022-11-16T17:46:37.082Z,97342.44
2022-11-16T17:49:05.462Z,97340.81
2022-11-16T17:51:32.672Z,97342.72
2022-11-16T17:54:00.384Z,97351.41
2022-11-16T17:56:28.614Z,97348.97
2022-11-16T17:58:58.778Z,97348.16
2022-11-16T18:01:28.500Z,97350.06
2022-11-16T18:03:55.605Z,97357.91
2022-11-16T18:06:25.690Z,97365.00
2022-11-16T18:08:53.596Z,97364.44
2022-11-16T18:11:26.412Z,97370.66
2022-11-16T18:13:55.205Z,97372.56
2022-11-16T18:16:25.766Z,97374.75
2022-11-16T18:19:05.880Z,97367.69
2022-11-16T18:21:40.517Z,97367.41
2022-11-16T18:24:08.713Z,97360.38
2022-11-16T18:26:36.749Z,97363.37
2022-11-16T18:29:04.460Z,97354.97
2022-11-16T18:31:34.479Z,97354.16
2022-11-16T18:34:02.254Z,97353.34
2022-11-16T18:36:29.488Z,97360.09
2022-11-16T18:38:57.348Z,97359.00
2022-11-16T18:41:27.739Z,97360.09
2022-11-16T18:43:58.830Z,97347.91
2022-11-16T18:46:29.873Z,97352.53
2022-11-16T18:48:57.152Z,97345.75
2022-11-16T18:51:26.728Z,97347.09
2022-11-16T18:53:55.139Z,97346.53
2022-11-16T18:56:23.150Z,97351.97
2022-11-16T18:58:52.492Z,97356.84
2022-11-16T19:01:23.862Z,97357.66
2022-11-16T19:03:53.247Z,97358.47
2022-11-16T19:06:21.433Z,97361.47
2022-11-16T19:08:55.915Z,97357.94
2022-11-16T19:11:25.017Z,97361.19
2022-11-16T19:13:55.144Z,97362.28
2022-11-16T19:16:23.910Z,97362.28
2022-11-16T19:18:51.591Z,97366.63
2022-11-16T19:21:20.162Z,97356.56
2022-11-16T19:23:49.694Z,97352.25
2022-11-16T19:26:20.129Z,97345.22
2022-11-16T19:28:50.292Z,97345.47
2022-11-16T19:31:24.339Z,97347.09
2022-11-16T19:34:01.514Z,97347.91
2022-11-16T19:36:30.717Z,97348.72
2022-11-16T19:39:17.516Z,97338.41
2022-11-16T19:41:44.890Z,97342.22
2022-11-16T19:44:13.397Z,97331.38
2022-11-16T19:46:40.960Z,97328.94
2022-11-16T19:49:13.476Z,97334.09
2022-11-16T19:51:44.864Z,97331.38
2022-11-16T19:54:15.183Z,97336.78
2022-11-16T19:56:43.066Z,97337.06
2022-11-16T19:59:11.093Z,97332.47
2022-11-16T20:01:38.721Z,97327.03
2022-11-16T20:04:06.223Z,97337.06
2022-11-16T20:06:35.211Z,97337.88
2022-11-16T20:09:09.266Z,97342.22
2022-11-16T20:11:38.923Z,97338.69
2022-11-16T20:14:08.989Z,97335.69
2022-11-16T20:16:39.574Z,97336.50
2022-11-16T20:19:09.007Z,97334.59
2022-11-16T20:21:39.858Z,97332.19
2022-11-16T20:24:11.094Z,97337.31
2022-11-16T20:26:43.260Z,97332.72
2022-11-16T20:29:12.323Z,97317.81
2022-11-16T20:31:43.313Z,97318.63
2022-11-16T20:34:16.408Z,97307.25
2022-11-16T20:36:46.775Z,97300.47
2022-11-16T20:39:16.572Z,97300.47
2022-11-16T20:41:44.699Z,97303.19
2022-11-16T20:44:16.553Z,97312.13
2022-11-16T20:46:45.702Z,97315.12
2022-11-16T20:49:13.413Z,97313.47
2022-11-16T20:51:40.942Z,97312.41
2022-11-16T20:54:08.675Z,97310.50
2022-11-16T20:56:38.613Z,97295.59
2022-11-16T20:59:05.585Z,97302.09
2022-11-16T21:01:33.524Z,97304.53
2022-11-16T21:04:05.834Z,97298.84
2022-11-16T21:06:33.388Z,97307.22
2022-11-16T21:09:02.266Z,97311.84
2022-11-16T21:11:51.552Z,97300.72
2022-11-16T21:14:20.544Z,97309.94
2022-11-16T21:16:47.522Z,97313.47
2022-11-16T21:19:18.320Z,97328.09
2022-11-16T21:21:45.734Z,97323.78
2022-11-16T21:24:12.681Z,97324.06
2022-11-16T21:26:39.803Z,97321.06
2022-11-16T21:29:06.951Z,97320.53
2022-11-16T21:31:36.523Z,97320.00
2022-11-16T21:34:04.760Z,97331.41
2022-11-16T21:36:33.222Z,97322.47
2022-11-16T21:39:00.501Z,97319.75
2022-11-16T21:41:27.957Z,97321.66
2022-11-16T21:43:54.873Z,97324.91
2022-11-16T21:46:26.956Z,97314.34
2022-11-16T21:48:57.006Z,97320.03
2022-11-16T21:51:26.918Z,97313.28
2022-11-16T21:53:54.946Z,97322.22
2022-11-16T21:56:24.284Z,97317.87
2022-11-16T21:58:55.326Z,97318.41
2022-11-16T22:01:24.327Z,97315.72
2022-11-16T22:04:11.256Z,97314.91
2022-11-16T22:06:57.453Z,97304.06
2022-11-16T22:09:24.591Z,97306.25
2022-11-16T22:11:51.849Z,97310.84
2022-11-16T22:14:18.652Z,97317.34
2022-11-16T22:16:46.062Z,97311.97
2022-11-16T22:19:12.802Z,97310.34
2022-11-16T22:21:39.570Z,97309.78
2022-11-16T22:24:07.516Z,97307.91
2022-11-16T22:26:34.540Z,97308.72
2022-11-16T22:29:01.707Z,97312.00
2022-11-16T22:31:28.776Z,97310.09
2022-11-16T22:33:55.862Z,97304.97
2022-11-16T22:36:22.712Z,97308.75
2022-11-16T22:38:49.873Z,97306.59
2022-11-16T22:41:17.287Z,97304.72
2022-11-16T22:43:44.029Z,97302.84
2022-11-16T22:46:11.288Z,97304.47
2022-11-16T22:48:40.261Z,97305.03
2022-11-16T22:51:28.967Z,97316.41
2022-11-16T22:53:56.880Z,97312.31
2022-11-16T22:56:24.881Z,97324.25
2022-11-16T22:58:52.293Z,97334.56
2022-11-16T23:01:20.140Z,97328.59
2022-11-16T23:03:48.271Z,97329.41
2022-11-16T23:06:15.443Z,97324.28
2022-11-16T23:08:42.639Z,97328.06
2022-11-16T23:11:34.270Z,97327.25
2022-11-16T23:14:19.849Z,97320.75
2022-11-16T23:16:48.025Z,97325.34
2022-11-16T23:19:35.674Z,97316.44
2022-11-16T23:22:21.808Z,97315.88
2022-11-16T23:25:07.470Z,97322.12
2022-11-16T23:27:52.840Z,97323.47
2022-11-16T23:30:19.756Z,97324.56
2022-11-16T23:32:46.892Z,97322.66
2022-11-16T23:35:14.633Z,97315.91
2022-11-16T23:37:52.229Z,97313.75
2022-11-16T23:40:20.262Z,97318.66
2022-11-16T23:43:05.915Z,97318.09
2022-11-16T23:45:33.245Z,97324.34
2022-11-16T23:48:00.837Z,97320.25
2022-11-16T23:50:28.010Z,97312.94
2022-11-16T23:52:54.811Z,97309.44
2022-11-16T23:55:23.212Z,97304.28
2022-11-16T23:57:50.878Z,97313.22
